Branson, MO

5:48 AM CDT on April 01, 2015 (GMT -0500)
McGoldrick | | Change Station
CLOSE
Current Station
Personal Weather Station
Location: Branson, MO
Elevation: 912 ft
Nearby Weather Stations

Elev 912 ft 36.65 °N, 93.20 °W | Updated 5 seconds ago

Mostly Cloudy
Mostly Cloudy
49.7 °F
Feels Like 50 °F
N
0.0
Wind Variable Wind from ESE
Gusts 0.0 mph

Today
High -- | Low -- °F
--% Chance of Precip.
Yesterday
High -- | Low -- °F
Precip. -- in
6:59 AM 7:34 PM
Waxing Gibbous, 92% visible
Pressure 29.96 in
Visibility 10.0 miles
Clouds Overcast 3500 ft
Windchill 50 °F
Dew Point 48 °F
Humidity 94%
Rainfall 0.00 in
Snow Depth Not available.
UV 0 out of 12
Pollen 10.70 out of 12
Air Quality Not available.
Flu Activity Not available.
METAR KBBG 011035Z AUTO 11003KT 10SM OVC035 13/11 A2996 RMK AO2

More Conditions Fewer Conditions

Pressure 29.96 in
Visibility 10.0 miles
Clouds Overcast 3500 ft
Windchill 50 °F
Dew Point 48 °F
Humidity 94%
Rainfall 0.00 in
Snow Depth Not available.
UV 0 out of 12
Pollen 10.70 out of 12
Air Quality Not available.
Flu Activity Not available.
METAR KBBG 011035Z AUTO 11003KT 10SM OVC035 13/11 A2996 RMK AO2

More Conditions Fewer Conditions

10-Day Weather Forecast

Almanac

Astronomy

Apr. 01, 2015 Rise Set
Actual Time
Civil Twilight
Nautical Twilight
Astronomical Twilight
Moon
Length of Visible Light
Length of Day
Tomorrow will be .
, % of the Moon is Illuminated

Today's Extremes

State Highs State Lows

Community

WunderPhotos

Upload Photos

1,809,934 photos uploaded!

WunderBlogs® & News

Nearby

Air Quality

  Air Quality AQ Index Pollutant
Not available.

Snow Depth

Station Depth Elevation

Earthquake Activity

City Distance Mag. Time & Date
Minimum magnitude displayed is 2.5.

Coastal Water Temperatures

Place Temperature

Stations

Nearby Weather Stations

Station Location Temp. Windchill Dew Point Humidity Wind Precip. Elev Updated Type